Guterl, Maggie
United StatesWomanBorn 19802011 – 2024Runner id 213869
Events
55
49 race dates
Best pace
12.578
km/h · 2014
Best finish
1st
of 75 · 2014
Distance raced
6,945
km · splits not double-counted
Pace over time
51 of 55 results · km/h
Pace over time: 50 races and 1 split from 2011 to 2024, ranging from 3.82 to 12.59 kilometres per hour, where higher is faster. A second, age-graded series is drawn above it; the gap between the two is the age credit.
- Actual pace
- Age-graded pace
- Split of a race already plotted
4 results are not on this chart. They are counted in every statistic above and listed in full below — backyard ultras carry a lap count instead of a pace, which is the number that means something in that format.
Results
| Date | Event | Distance | Result | Pace km/h | Placing |
|---|---|---|---|---|---|
| 2011-07-16 | 24h | 156.325 km | 6.514 | 22/198 | |
| 2012-05-20 | Dirty German Endurance Fest 50 MileUnited States | 50mi | 10:27:25 h | 7.695 | 29/47 |
| 2012-07-14 | 24h | 176.911 km | 7.371 | 9/195 | |
| 2013-03-23 | New Jersey Ultra Festival 100 km RaceUnited States | 100km | 11:18:56 h | 8.837 | 6/26 |
| 2013-05-26 | Dirty German Endurance Fest 50 MileUnited States | 50mi | 9:25:24 h | 8.539 | 31/75 |
| 2013-07-27 | 100mi | 25:50:00 h | 6.230 | 2/3 | |
| 2013-11-23 | 50km | 8:54:27 h | 5.613 | 56/91 | |
| 2014-01-04 | PHUNT 50K RunUnited States | 50km | 6:45:00 h | 7.407 | 37/84 |
| 2014-01-11 | 100km | 13:20:01 h | 7.500 | 34/76 | |
| 2014-01-11 | 100km | 13:20:01 h | 7.500 | 51/200 | |
| 2014-02-01 | 100mi | 22:37:41 h | 7.112 | 64/279 | |
| 2014-03-02 | 50km | 3:58:31 h | 12.578 | 24/56 | |
| 2014-03-08 | 50km | 6:54:19 h | 7.241 | 81/206 | |
| 2014-03-30 | 100km | 15:21:26 h | 6.512 | 49/61 | |
| 2014-05-18 | 50mi | 7:38:31 h | 10.530 | 8/76 | |
| 2014-06-01 | Cayuga Trails 50 Mile RaceUnited States | 50mi | 10:25:00 h | 7.725 | 66/176 |
| 2014-07-26 | Viaduct Trail Ultramarathon 100 MileUnited States | 100mi | 18:34:00 h | 8.668 | 4/10 |
| 2014-11-08 | 24h | 228.526 km | 9.522 | 1/75 | |
| 2014-12-20 | 60km | 7:01:09 h | 8.548 | 3/12 | |
| 2015-01-03 | 50km | 5:05:53 h | 9.808 | 7/104 | |
| 2015-04-11 | 24h | 235.811 km | 9.825 | 34/300 | |
| 2015-05-31 | Cayuga Trails 50 Mile RaceUnited States | 50mi | 9:07:07 h | 8.825 | 35/169 |
| 2015-07-18 | Lone Ranger 24 hr Urban UltraUnited States | 24h | 190.610 km | 7.942 | 3/128 |
| 2015-09-19 | 50km | 10:07:12 h | 4.941 | 14/101 | |
| 2015-10-10 | 100mi | 21:04:16 h | 7.638 | 7/84 | |
| 2015-12-12 | 100mi | 17:21:14 h | 9.274 | 4/35 | |
| 2016-03-19 | 68mi | 14:42:27 h | 7.441 | 9/162 | |
| 2016-06-25 | 100mi | 20:50:07 h | 7.724 | 45/280 | |
| 2016-09-10 | 50km | 6:54:01 h | 7.246 | 10/177 | |
| 2016-10-02 | 50km | 6:21:59 h | 7.854 | 165/308 | |
| 2016-12-10 | 100mi | 14:47:02 h | 10.886 | 1/61 | |
| 2017-03-04 | 40mi | 6:09:39 h | 10.449 | 7/83 | |
| 2017-05-13 | Dirty German Endurance Fest 50 kmUnited States | 50km | 4:46:23 h | 10.475 | 3/153 |
| 2017-06-24 | 100mi | 27:22:13 h | 5.880 | 124/248 | |
| 2017-09-07 | 100mi | 29:22:19 h | 5.479 | 35/38 | |
| 2017-10-01 | 50km | 6:16:46 h | 7.962 | 174/370 | |
| 2018-05-12 | 24h | 91.599 km | 3.817 | 27/37 | |
| 2018-09-02 | 12h | 104.607 km | 8.717 | 4/275 | |
| 2018-09-08 | 50km | 4:21:31 h | 11.472 | 9/172 | |
| 2018-09-15 | 50km | 4:57:28 h | 10.085 | 7/150 | |
| 2018-09-29 | 6h | 60.994 km | 10.166 | 2/8 | |
| 2018-10-20 | 68h | 295.064 km | 44laps | 7/61 | |
| 2018-12-08 | 24h | 169.283 km | 7.053 | 16/33 | |
| 2018-12-08 | Desert Solstice 24 Hour Run - 100mi SplitUnited StatesIAU SilverSplit of a longer race in this career; not counted again in the distance total*Chadds Ford, PA | 100mi | 18:29:54 h | 8.700 | 16/23 |
| 2019-06-14 | 100mi | 30:06:06 h | 5.346 | 68/187 | |
| 2019-08-24 | 38mi | 10:44:23 h | 5.694 | 20/50 | |
| 2019-10-19 | 60h | 402.360 km | 60laps | 1/70 | |
| 2020-10-17 | 68h | 261.534 km | 39laps | 6/14 | |
| 2021-05-03 | 250mi | 3d 13:30:38 h | 4.705 | 7/108 | |
| 2021-07-30 | High Lonesome 100 MileUnited States | 100mi | 29:46:11 h | 5.406 | 30/94 |
Showing 1–50 of 55